sensor_id;sensor_type;location;lat;lon;timestamp;P1;durP1;ratioP1;P2;durP2;ratioP2
6420;SDS011;3243;50.958;7.012;2022-12-13T00:00:36;30.97;;;16.73;;
6420;SDS011;3243;50.958;7.012;2022-12-13T00:03:03;30.13;;;17.00;;
6420;SDS011;3243;50.958;7.012;2022-12-13T00:05:32;33.20;;;17.87;;
6420;SDS011;3243;50.958;7.012;2022-12-13T00:07:59;29.37;;;17.53;;
6420;SDS011;3243;50.958;7.012;2022-12-13T00:10:27;37.40;;;18.83;;
6420;SDS011;3243;50.958;7.012;2022-12-13T00:12:54;33.00;;;18.30;;
6420;SDS011;3243;50.958;7.012;2022-12-13T00:15:21;31.63;;;17.87;;
6420;SDS011;3243;50.958;7.012;2022-12-13T00:17:48;32.63;;;19.47;;
6420;SDS011;3243;50.958;7.012;2022-12-13T00:20:15;35.20;;;19.00;;
6420;SDS011;3243;50.958;7.012;2022-12-13T00:22:43;32.30;;;17.97;;
6420;SDS011;3243;50.958;7.012;2022-12-13T00:25:10;35.03;;;18.77;;
6420;SDS011;3243;50.958;7.012;2022-12-13T00:27:38;35.53;;;19.30;;
6420;SDS011;3243;50.958;7.012;2022-12-13T00:30:05;42.10;;;19.87;;
6420;SDS011;3243;50.958;7.012;2022-12-13T00:32:32;35.07;;;19.30;;
6420;SDS011;3243;50.958;7.012;2022-12-13T00:35:00;34.13;;;18.67;;
6420;SDS011;3243;50.958;7.012;2022-12-13T00:37:26;35.73;;;19.60;;
6420;SDS011;3243;50.958;7.012;2022-12-13T00:39:53;34.13;;;19.20;;
6420;SDS011;3243;50.958;7.012;2022-12-13T00:42:20;35.37;;;19.63;;
6420;SDS011;3243;50.958;7.012;2022-12-13T00:44:47;32.90;;;18.70;;
6420;SDS011;3243;50.958;7.012;2022-12-13T00:47:13;33.63;;;19.30;;
6420;SDS011;3243;50.958;7.012;2022-12-13T00:49:40;37.87;;;19.37;;
6420;SDS011;3243;50.958;7.012;2022-12-13T00:52:07;34.27;;;18.97;;
6420;SDS011;3243;50.958;7.012;2022-12-13T00:54:34;37.90;;;20.03;;
6420;SDS011;3243;50.958;7.012;2022-12-13T00:57:01;33.43;;;19.03;;
6420;SDS011;3243;50.958;7.012;2022-12-13T00:59:28;35.50;;;19.00;;
6420;SDS011;3243;50.958;7.012;2022-12-13T01:01:55;29.30;;;18.07;;
6420;SDS011;3243;50.958;7.012;2022-12-13T01:04:22;35.80;;;20.03;;
6420;SDS011;3243;50.958;7.012;2022-12-13T01:06:49;39.73;;;19.93;;
6420;SDS011;3243;50.958;7.012;2022-12-13T01:09:18;34.50;;;19.20;;
6420;SDS011;3243;50.958;7.012;2022-12-13T01:11:47;36.43;;;19.43;;
6420;SDS011;3243;50.958;7.012;2022-12-13T01:14:15;34.10;;;19.70;;
6420;SDS011;3243;50.958;7.012;2022-12-13T01:16:42;36.57;;;19.27;;
6420;SDS011;3243;50.958;7.012;2022-12-13T01:19:09;38.10;;;20.50;;
6420;SDS011;3243;50.958;7.012;2022-12-13T01:21:37;38.90;;;20.50;;
6420;SDS011;3243;50.958;7.012;2022-12-13T01:24:04;37.50;;;19.53;;
6420;SDS011;3243;50.958;7.012;2022-12-13T01:26:32;35.47;;;18.90;;
6420;SDS011;3243;50.958;7.012;2022-12-13T01:28:59;36.67;;;19.60;;
6420;SDS011;3243;50.958;7.012;2022-12-13T01:31:26;40.07;;;20.63;;
6420;SDS011;3243;50.958;7.012;2022-12-13T01:33:53;35.30;;;19.77;;
6420;SDS011;3243;50.958;7.012;2022-12-13T01:36:21;39.67;;;20.53;;
6420;SDS011;3243;50.958;7.012;2022-12-13T01:38:53;39.03;;;20.03;;
6420;SDS011;3243;50.958;7.012;2022-12-13T01:41:23;41.27;;;20.60;;
6420;SDS011;3243;50.958;7.012;2022-12-13T01:43:54;37.43;;;20.07;;
6420;SDS011;3243;50.958;7.012;2022-12-13T01:46:29;36.63;;;20.23;;
6420;SDS011;3243;50.958;7.012;2022-12-13T01:49:00;36.13;;;19.57;;
6420;SDS011;3243;50.958;7.012;2022-12-13T01:51:50;35.83;;;19.67;;
6420;SDS011;3243;50.958;7.012;2022-12-13T01:54:24;36.63;;;19.57;;
6420;SDS011;3243;50.958;7.012;2022-12-13T01:56:59;39.23;;;18.83;;
6420;SDS011;3243;50.958;7.012;2022-12-13T01:59:28;39.07;;;20.03;;
6420;SDS011;3243;50.958;7.012;2022-12-13T02:01:55;36.37;;;19.70;;
6420;SDS011;3243;50.958;7.012;2022-12-13T02:04:27;37.33;;;19.27;;
6420;SDS011;3243;50.958;7.012;2022-12-13T02:06:59;36.17;;;19.27;;
6420;SDS011;3243;50.958;7.012;2022-12-13T02:09:26;34.73;;;19.77;;
6420;SDS011;3243;50.958;7.012;2022-12-13T02:11:53;32.77;;;19.27;;
6420;SDS011;3243;50.958;7.012;2022-12-13T02:14:20;38.77;;;19.50;;
6420;SDS011;3243;50.958;7.012;2022-12-13T02:16:54;40.30;;;19.00;;
6420;SDS011;3243;50.958;7.012;2022-12-13T02:35:37;38.63;;;19.40;;
6420;SDS011;3243;50.958;7.012;2022-12-13T02:41:16;33.10;;;17.93;;
6420;SDS011;3243;50.958;7.012;2022-12-13T02:46:53;36.53;;;18.97;;
6420;SDS011;3243;50.958;7.012;2022-12-13T02:49:26;37.27;;;19.27;;
6420;SDS011;3243;50.958;7.012;2022-12-13T02:51:56;37.07;;;18.43;;
6420;SDS011;3243;50.958;7.012;2022-12-13T02:54:24;34.50;;;19.43;;
6420;SDS011;3243;50.958;7.012;2022-12-13T02:56:54;36.57;;;18.87;;
6420;SDS011;3243;50.958;7.012;2022-12-13T02:59:23;37.57;;;18.60;;
6420;SDS011;3243;50.958;7.012;2022-12-13T03:02:05;35.00;;;19.00;;
6420;SDS011;3243;50.958;7.012;2022-12-13T03:05:03;36.10;;;18.63;;
6420;SDS011;3243;50.958;7.012;2022-12-13T03:07:54;36.97;;;19.20;;
6420;SDS011;3243;50.958;7.012;2022-12-13T03:10:36;35.20;;;19.63;;
6420;SDS011;3243;50.958;7.012;2022-12-13T03:13:43;36.47;;;19.20;;
6420;SDS011;3243;50.958;7.012;2022-12-13T03:16:32;38.83;;;19.53;;
6420;SDS011;3243;50.958;7.012;2022-12-13T03:19:06;36.93;;;19.13;;
6420;SDS011;3243;50.958;7.012;2022-12-13T03:21:42;33.60;;;18.20;;
6420;SDS011;3243;50.958;7.012;2022-12-13T03:24:17;34.07;;;18.97;;
6420;SDS011;3243;50.958;7.012;2022-12-13T03:26:46;34.47;;;18.10;;
6420;SDS011;3243;50.958;7.012;2022-12-13T03:29:14;35.03;;;19.03;;
6420;SDS011;3243;50.958;7.012;2022-12-13T03:31:50;31.60;;;18.80;;
6420;SDS011;3243;50.958;7.012;2022-12-13T03:34:20;35.23;;;18.53;;
6420;SDS011;3243;50.958;7.012;2022-12-13T03:36:49;34.50;;;18.37;;
6420;SDS011;3243;50.958;7.012;2022-12-13T03:39:17;37.10;;;20.10;;
6420;SDS011;3243;50.958;7.012;2022-12-13T03:41:45;38.03;;;19.30;;
6420;SDS011;3243;50.958;7.012;2022-12-13T03:44:12;36.93;;;20.23;;
6420;SDS011;3243;50.958;7.012;2022-12-13T03:46:39;31.93;;;17.70;;
6420;SDS011;3243;50.958;7.012;2022-12-13T03:49:06;36.77;;;19.80;;
6420;SDS011;3243;50.958;7.012;2022-12-13T03:51:40;34.97;;;18.83;;
6420;SDS011;3243;50.958;7.012;2022-12-13T03:54:07;36.17;;;18.83;;
6420;SDS011;3243;50.958;7.012;2022-12-13T03:56:34;35.07;;;18.43;;
6420;SDS011;3243;50.958;7.012;2022-12-13T03:59:01;34.20;;;18.50;;
6420;SDS011;3243;50.958;7.012;2022-12-13T04:01:28;35.23;;;18.53;;
6420;SDS011;3243;50.958;7.012;2022-12-13T04:03:54;35.47;;;19.60;;
6420;SDS011;3243;50.958;7.012;2022-12-13T04:06:21;35.83;;;19.10;;
6420;SDS011;3243;50.958;7.012;2022-12-13T04:08:55;35.43;;;18.07;;
6420;SDS011;3243;50.958;7.012;2022-12-13T04:11:21;34.43;;;18.70;;
6420;SDS011;3243;50.958;7.012;2022-12-13T04:14:09;38.70;;;19.50;;
6420;SDS011;3243;50.958;7.012;2022-12-13T04:16:37;34.57;;;19.37;;
6420;SDS011;3243;50.958;7.012;2022-12-13T04:19:04;37.57;;;19.53;;
6420;SDS011;3243;50.958;7.012;2022-12-13T04:21:34;38.73;;;19.50;;
6420;SDS011;3243;50.958;7.012;2022-12-13T04:24:03;39.80;;;20.03;;
6420;SDS011;3243;50.958;7.012;2022-12-13T04:26:30;37.77;;;19.47;;
6420;SDS011;3243;50.958;7.012;2022-12-13T04:28:57;39.83;;;19.90;;
6420;SDS011;3243;50.958;7.012;2022-12-13T04:31:24;41.57;;;20.93;;
6420;SDS011;3243;50.958;7.012;2022-12-13T04:33:51;38.73;;;19.37;;
6420;SDS011;3243;50.958;7.012;2022-12-13T04:36:17;39.70;;;20.07;;
6420;SDS011;3243;50.958;7.012;2022-12-13T04:38:57;42.40;;;20.77;;
6420;SDS011;3243;50.958;7.012;2022-12-13T04:41:25;35.33;;;19.63;;
6420;SDS011;3243;50.958;7.012;2022-12-13T04:43:59;35.10;;;19.10;;
6420;SDS011;3243;50.958;7.012;2022-12-13T04:46:27;40.83;;;20.50;;
6420;SDS011;3243;50.958;7.012;2022-12-13T04:48:54;39.03;;;19.70;;
6420;SDS011;3243;50.958;7.012;2022-12-13T04:51:21;38.20;;;19.00;;
6420;SDS011;3243;50.958;7.012;2022-12-13T04:53:48;41.30;;;20.63;;
6420;SDS011;3243;50.958;7.012;2022-12-13T04:56:15;39.50;;;20.50;;
6420;SDS011;3243;50.958;7.012;2022-12-13T04:58:42;39.13;;;20.43;;
6420;SDS011;3243;50.958;7.012;2022-12-13T05:01:10;40.83;;;21.60;;
6420;SDS011;3243;50.958;7.012;2022-12-13T05:03:37;36.47;;;18.97;;
6420;SDS011;3243;50.958;7.012;2022-12-13T05:06:05;37.97;;;20.73;;
6420;SDS011;3243;50.958;7.012;2022-12-13T05:08:52;42.53;;;21.97;;
6420;SDS011;3243;50.958;7.012;2022-12-13T05:11:26;46.17;;;23.77;;
6420;SDS011;3243;50.958;7.012;2022-12-13T05:14:00;50.60;;;27.60;;
6420;SDS011;3243;50.958;7.012;2022-12-13T05:16:27;44.60;;;23.97;;
6420;SDS011;3243;50.958;7.012;2022-12-13T05:18:54;40.07;;;21.03;;
6420;SDS011;3243;50.958;7.012;2022-12-13T05:21:21;39.83;;;21.20;;
6420;SDS011;3243;50.958;7.012;2022-12-13T05:23:48;39.17;;;21.20;;
6420;SDS011;3243;50.958;7.012;2022-12-13T05:26:15;43.53;;;22.20;;
6420;SDS011;3243;50.958;7.012;2022-12-13T05:28:42;40.83;;;21.33;;
6420;SDS011;3243;50.958;7.012;2022-12-13T05:31:09;45.47;;;21.73;;
6420;SDS011;3243;50.958;7.012;2022-12-13T05:33:49;45.23;;;20.53;;
6420;SDS011;3243;50.958;7.012;2022-12-13T05:36:16;38.40;;;19.47;;
6420;SDS011;3243;50.958;7.012;2022-12-13T05:38:43;39.83;;;20.10;;
6420;SDS011;3243;50.958;7.012;2022-12-13T05:41:12;39.77;;;20.63;;
6420;SDS011;3243;50.958;7.012;2022-12-13T05:43:41;37.40;;;21.07;;
6420;SDS011;3243;50.958;7.012;2022-12-13T05:46:09;39.20;;;20.77;;
6420;SDS011;3243;50.958;7.012;2022-12-13T05:48:37;41.50;;;21.37;;
6420;SDS011;3243;50.958;7.012;2022-12-13T05:51:05;40.03;;;21.07;;
6420;SDS011;3243;50.958;7.012;2022-12-13T05:53:37;34.03;;;19.50;;
6420;SDS011;3243;50.958;7.012;2022-12-13T05:56:07;41.13;;;20.70;;
6420;SDS011;3243;50.958;7.012;2022-12-13T05:58:36;43.07;;;20.43;;
6420;SDS011;3243;50.958;7.012;2022-12-13T06:01:05;34.60;;;20.10;;
6420;SDS011;3243;50.958;7.012;2022-12-13T06:03:34;37.53;;;19.77;;
6420;SDS011;3243;50.958;7.012;2022-12-13T06:06:02;37.17;;;19.60;;
6420;SDS011;3243;50.958;7.012;2022-12-13T06:08:30;39.23;;;19.80;;
6420;SDS011;3243;50.958;7.012;2022-12-13T06:10:58;40.60;;;20.23;;
6420;SDS011;3243;50.958;7.012;2022-12-13T06:13:37;37.73;;;19.40;;
6420;SDS011;3243;50.958;7.012;2022-12-13T06:16:10;36.97;;;19.87;;
6420;SDS011;3243;50.958;7.012;2022-12-13T06:18:49;39.37;;;20.17;;
6420;SDS011;3243;50.958;7.012;2022-12-13T06:21:26;37.00;;;18.93;;
6420;SDS011;3243;50.958;7.012;2022-12-13T06:23:53;41.67;;;20.77;;
6420;SDS011;3243;50.958;7.012;2022-12-13T06:26:20;39.17;;;19.87;;
6420;SDS011;3243;50.958;7.012;2022-12-13T06:28:47;40.63;;;20.83;;
6420;SDS011;3243;50.958;7.012;2022-12-13T06:31:14;35.97;;;20.07;;
6420;SDS011;3243;50.958;7.012;2022-12-13T06:33:41;37.00;;;19.60;;
6420;SDS011;3243;50.958;7.012;2022-12-13T06:36:08;38.03;;;20.50;;
6420;SDS011;3243;50.958;7.012;2022-12-13T06:38:35;37.33;;;19.67;;
6420;SDS011;3243;50.958;7.012;2022-12-13T06:41:09;37.63;;;20.40;;
6420;SDS011;3243;50.958;7.012;2022-12-13T06:43:41;38.93;;;20.93;;
6420;SDS011;3243;50.958;7.012;2022-12-13T06:46:08;45.37;;;21.23;;
6420;SDS011;3243;50.958;7.012;2022-12-13T06:48:35;33.90;;;18.87;;
6420;SDS011;3243;50.958;7.012;2022-12-13T06:51:03;41.93;;;21.57;;
6420;SDS011;3243;50.958;7.012;2022-12-13T06:53:30;42.73;;;20.90;;
6420;SDS011;3243;50.958;7.012;2022-12-13T06:56:01;44.87;;;21.97;;
6420;SDS011;3243;50.958;7.012;2022-12-13T06:58:38;45.23;;;23.90;;
6420;SDS011;3243;50.958;7.012;2022-12-13T07:01:13;41.53;;;20.97;;
6420;SDS011;3243;50.958;7.012;2022-12-13T07:03:50;39.37;;;21.73;;
6420;SDS011;3243;50.958;7.012;2022-12-13T07:06:20;36.33;;;18.70;;
6420;SDS011;3243;50.958;7.012;2022-12-13T07:08:49;49.57;;;26.10;;
6420;SDS011;3243;50.958;7.012;2022-12-13T07:11:22;37.10;;;19.30;;
6420;SDS011;3243;50.958;7.012;2022-12-13T07:13:51;43.37;;;21.80;;
6420;SDS011;3243;50.958;7.012;2022-12-13T07:16:18;61.43;;;30.20;;
6420;SDS011;3243;50.958;7.012;2022-12-13T07:18:45;52.50;;;26.50;;
6420;SDS011;3243;50.958;7.012;2022-12-13T07:21:13;36.63;;;19.07;;
6420;SDS011;3243;50.958;7.012;2022-12-13T07:23:47;35.50;;;19.20;;
6420;SDS011;3243;50.958;7.012;2022-12-13T07:26:20;38.10;;;20.40;;
6420;SDS011;3243;50.958;7.012;2022-12-13T07:28:47;37.77;;;20.50;;
6420;SDS011;3243;50.958;7.012;2022-12-13T07:31:20;40.90;;;22.50;;
6420;SDS011;3243;50.958;7.012;2022-12-13T07:33:49;40.00;;;22.20;;
6420;SDS011;3243;50.958;7.012;2022-12-13T07:36:17;45.93;;;23.60;;
6420;SDS011;3243;50.958;7.012;2022-12-13T07:38:49;37.40;;;18.60;;
6420;SDS011;3243;50.958;7.012;2022-12-13T07:41:20;40.77;;;20.97;;
6420;SDS011;3243;50.958;7.012;2022-12-13T07:43:51;38.00;;;18.90;;
6420;SDS011;3243;50.958;7.012;2022-12-13T07:46:21;32.50;;;18.10;;
6420;SDS011;3243;50.958;7.012;2022-12-13T07:49:00;39.13;;;19.40;;
6420;SDS011;3243;50.958;7.012;2022-12-13T07:51:28;40.77;;;22.17;;
6420;SDS011;3243;50.958;7.012;2022-12-13T07:53:56;38.47;;;18.77;;
6420;SDS011;3243;50.958;7.012;2022-12-13T07:56:22;34.60;;;17.57;;
6420;SDS011;3243;50.958;7.012;2022-12-13T07:58:49;36.87;;;17.27;;
6420;SDS011;3243;50.958;7.012;2022-12-13T08:01:16;32.53;;;17.20;;
6420;SDS011;3243;50.958;7.012;2022-12-13T08:03:46;33.70;;;17.67;;
6420;SDS011;3243;50.958;7.012;2022-12-13T08:06:13;34.80;;;18.27;;
6420;SDS011;3243;50.958;7.012;2022-12-13T08:08:40;31.30;;;17.03;;
6420;SDS011;3243;50.958;7.012;2022-12-13T08:11:11;33.77;;;18.40;;
6420;SDS011;3243;50.958;7.012;2022-12-13T08:13:40;31.87;;;16.03;;
6420;SDS011;3243;50.958;7.012;2022-12-13T08:16:08;32.90;;;17.87;;
6420;SDS011;3243;50.958;7.012;2022-12-13T08:18:53;30.87;;;17.13;;
6420;SDS011;3243;50.958;7.012;2022-12-13T08:21:39;32.70;;;16.77;;
6420;SDS011;3243;50.958;7.012;2022-12-13T08:24:27;34.73;;;17.87;;
6420;SDS011;3243;50.958;7.012;2022-12-13T08:26:56;34.53;;;17.50;;
6420;SDS011;3243;50.958;7.012;2022-12-13T08:29:28;37.63;;;18.70;;
6420;SDS011;3243;50.958;7.012;2022-12-13T08:32:00;35.20;;;17.67;;
6420;SDS011;3243;50.958;7.012;2022-12-13T08:34:31;33.43;;;17.60;;
6420;SDS011;3243;50.958;7.012;2022-12-13T08:36:58;31.00;;;16.23;;
6420;SDS011;3243;50.958;7.012;2022-12-13T08:39:29;32.17;;;17.63;;
6420;SDS011;3243;50.958;7.012;2022-12-13T08:42:02;37.40;;;18.20;;
6420;SDS011;3243;50.958;7.012;2022-12-13T08:44:42;34.40;;;17.67;;
6420;SDS011;3243;50.958;7.012;2022-12-13T08:47:09;32.43;;;17.53;;
6420;SDS011;3243;50.958;7.012;2022-12-13T08:49:36;34.07;;;17.90;;
6420;SDS011;3243;50.958;7.012;2022-12-13T08:52:03;34.27;;;17.27;;
6420;SDS011;3243;50.958;7.012;2022-12-13T08:54:31;32.70;;;16.53;;
6420;SDS011;3243;50.958;7.012;2022-12-13T08:56:59;32.60;;;17.40;;
6420;SDS011;3243;50.958;7.012;2022-12-13T08:59:26;27.67;;;15.80;;
6420;SDS011;3243;50.958;7.012;2022-12-13T09:01:52;30.57;;;16.63;;
6420;SDS011;3243;50.958;7.012;2022-12-13T09:04:26;32.20;;;16.73;;
6420;SDS011;3243;50.958;7.012;2022-12-13T09:06:57;32.67;;;17.10;;
6420;SDS011;3243;50.958;7.012;2022-12-13T09:09:27;30.60;;;16.17;;
6420;SDS011;3243;50.958;7.012;2022-12-13T09:11:55;30.50;;;16.23;;
6420;SDS011;3243;50.958;7.012;2022-12-13T09:14:25;31.80;;;16.40;;
6420;SDS011;3243;50.958;7.012;2022-12-13T09:16:59;31.03;;;15.77;;
6420;SDS011;3243;50.958;7.012;2022-12-13T09:19:28;28.57;;;15.57;;
6420;SDS011;3243;50.958;7.012;2022-12-13T09:22:03;33.60;;;16.67;;
6420;SDS011;3243;50.958;7.012;2022-12-13T09:24:30;29.43;;;16.20;;
6420;SDS011;3243;50.958;7.012;2022-12-13T09:27:02;29.50;;;15.40;;
6420;SDS011;3243;50.958;7.012;2022-12-13T09:29:35;28.07;;;14.73;;
6420;SDS011;3243;50.958;7.012;2022-12-13T09:32:02;27.43;;;16.03;;
6420;SDS011;3243;50.958;7.012;2022-12-13T09:34:30;29.80;;;15.90;;
6420;SDS011;3243;50.958;7.012;2022-12-13T09:37:00;31.77;;;16.67;;
6420;SDS011;3243;50.958;7.012;2022-12-13T09:39:27;28.57;;;16.00;;
6420;SDS011;3243;50.958;7.012;2022-12-13T09:41:55;30.53;;;16.27;;
6420;SDS011;3243;50.958;7.012;2022-12-13T09:47:00;31.13;;;16.33;;
6420;SDS011;3243;50.958;7.012;2022-12-13T09:49:40;28.87;;;16.23;;
6420;SDS011;3243;50.958;7.012;2022-12-13T09:52:18;27.03;;;15.47;;
6420;SDS011;3243;50.958;7.012;2022-12-13T09:54:47;32.73;;;15.73;;
6420;SDS011;3243;50.958;7.012;2022-12-13T09:57:24;28.50;;;15.90;;
6420;SDS011;3243;50.958;7.012;2022-12-13T09:59:59;30.50;;;15.87;;
6420;SDS011;3243;50.958;7.012;2022-12-13T10:02:50;27.47;;;16.13;;
6420;SDS011;3243;50.958;7.012;2022-12-13T10:08:08;30.73;;;16.57;;
6420;SDS011;3243;50.958;7.012;2022-12-13T10:10:39;27.23;;;14.73;;
6420;SDS011;3243;50.958;7.012;2022-12-13T10:13:15;26.93;;;14.57;;
6420;SDS011;3243;50.958;7.012;2022-12-13T10:18:50;27.93;;;15.30;;
6420;SDS011;3243;50.958;7.012;2022-12-13T10:21:24;26.87;;;15.30;;
6420;SDS011;3243;50.958;7.012;2022-12-13T10:23:55;27.70;;;15.17;;
6420;SDS011;3243;50.958;7.012;2022-12-13T10:27:09;27.97;;;15.53;;
6420;SDS011;3243;50.958;7.012;2022-12-13T10:29:55;26.77;;;15.37;;
6420;SDS011;3243;50.958;7.012;2022-12-13T10:32:32;26.33;;;14.43;;
6420;SDS011;3243;50.958;7.012;2022-12-13T10:35:28;27.90;;;14.97;;
6420;SDS011;3243;50.958;7.012;2022-12-13T10:38:48;25.93;;;14.53;;
6420;SDS011;3243;50.958;7.012;2022-12-13T10:40:57;25.30;;;14.43;;
6420;SDS011;3243;50.958;7.012;2022-12-13T10:43:26;31.37;;;15.20;;
6420;SDS011;3243;50.958;7.012;2022-12-13T10:51:09;24.43;;;14.43;;
6420;SDS011;3243;50.958;7.012;2022-12-13T10:53:38;27.90;;;14.53;;
6420;SDS011;3243;50.958;7.012;2022-12-13T10:56:13;22.63;;;13.10;;
6420;SDS011;3243;50.958;7.012;2022-12-13T10:58:50;21.93;;;12.63;;
6420;SDS011;3243;50.958;7.012;2022-12-13T11:01:41;24.03;;;13.33;;
6420;SDS011;3243;50.958;7.012;2022-12-13T11:06:53;24.40;;;13.53;;
6420;SDS011;3243;50.958;7.012;2022-12-13T11:09:26;23.13;;;13.23;;
6420;SDS011;3243;50.958;7.012;2022-12-13T11:11:54;22.57;;;12.83;;
6420;SDS011;3243;50.958;7.012;2022-12-13T11:14:25;23.43;;;13.03;;
6420;SDS011;3243;50.958;7.012;2022-12-13T11:17:12;26.67;;;13.47;;
6420;SDS011;3243;50.958;7.012;2022-12-13T11:19:52;21.57;;;12.70;;
6420;SDS011;3243;50.958;7.012;2022-12-13T11:25:02;21.67;;;13.10;;
6420;SDS011;3243;50.958;7.012;2022-12-13T11:30:36;21.60;;;12.17;;
6420;SDS011;3243;50.958;7.012;2022-12-13T11:33:13;21.43;;;12.30;;
6420;SDS011;3243;50.958;7.012;2022-12-13T11:41:01;20.57;;;11.70;;
6420;SDS011;3243;50.958;7.012;2022-12-13T11:43:59;19.00;;;10.40;;
6420;SDS011;3243;50.958;7.012;2022-12-13T11:46:37;20.60;;;11.50;;
6420;SDS011;3243;50.958;7.012;2022-12-13T11:49:08;22.40;;;11.73;;
6420;SDS011;3243;50.958;7.012;2022-12-13T11:51:49;19.40;;;11.40;;
6420;SDS011;3243;50.958;7.012;2022-12-13T11:54:19;20.60;;;12.27;;
6420;SDS011;3243;50.958;7.012;2022-12-13T11:56:54;22.00;;;11.60;;
6420;SDS011;3243;50.958;7.012;2022-12-13T11:59:38;19.93;;;11.60;;
6420;SDS011;3243;50.958;7.012;2022-12-13T12:07:59;21.63;;;11.17;;
6420;SDS011;3243;50.958;7.012;2022-12-13T12:11:07;17.23;;;9.63;;
6420;SDS011;3243;50.958;7.012;2022-12-13T12:17:13;18.97;;;10.40;;
6420;SDS011;3243;50.958;7.012;2022-12-13T12:19:25;16.27;;;9.70;;
6420;SDS011;3243;50.958;7.012;2022-12-13T12:30:12;17.87;;;11.43;;
6420;SDS011;3243;50.958;7.012;2022-12-13T12:33:01;17.27;;;10.27;;
6420;SDS011;3243;50.958;7.012;2022-12-13T12:43:43;16.13;;;10.23;;
6420;SDS011;3243;50.958;7.012;2022-12-13T13:00:14;17.97;;;9.87;;
6420;SDS011;3243;50.958;7.012;2022-12-13T13:02:46;21.00;;;9.80;;
6420;SDS011;3243;50.958;7.012;2022-12-13T13:06:02;15.03;;;9.23;;
6420;SDS011;3243;50.958;7.012;2022-12-13T13:11:22;20.03;;;10.23;;
6420;SDS011;3243;50.958;7.012;2022-12-13T13:16:37;15.53;;;9.63;;
6420;SDS011;3243;50.958;7.012;2022-12-13T13:22:01;16.13;;;9.67;;
6420;SDS011;3243;50.958;7.012;2022-12-13T13:27:33;18.33;;;9.53;;
6420;SDS011;3243;50.958;7.012;2022-12-13T13:30:06;18.00;;;9.90;;
6420;SDS011;3243;50.958;7.012;2022-12-13T13:32:42;15.17;;;9.53;;
6420;SDS011;3243;50.958;7.012;2022-12-13T13:37:59;15.50;;;9.47;;
6420;SDS011;3243;50.958;7.012;2022-12-13T13:40:30;16.43;;;9.97;;
6420;SDS011;3243;50.958;7.012;2022-12-13T13:45:52;17.83;;;9.90;;
6420;SDS011;3243;50.958;7.012;2022-12-13T13:53:22;15.13;;;9.27;;
6420;SDS011;3243;50.958;7.012;2022-12-13T14:07:24;18.30;;;9.97;;
6420;SDS011;3243;50.958;7.012;2022-12-13T14:29:19;19.53;;;10.47;;
6420;SDS011;3243;50.958;7.012;2022-12-13T14:31:56;17.23;;;9.50;;
6420;SDS011;3243;50.958;7.012;2022-12-13T14:34:27;15.63;;;9.30;;
6420;SDS011;3243;50.958;7.012;2022-12-13T14:39:23;19.03;;;10.13;;
6420;SDS011;3243;50.958;7.012;2022-12-13T14:41:52;18.00;;;9.60;;
6420;SDS011;3243;50.958;7.012;2022-12-13T14:47:00;16.90;;;9.83;;
6420;SDS011;3243;50.958;7.012;2022-12-13T14:49:28;17.07;;;9.50;;
6420;SDS011;3243;50.958;7.012;2022-12-13T14:52:07;19.43;;;10.40;;
6420;SDS011;3243;50.958;7.012;2022-12-13T14:54:56;18.00;;;10.73;;
6420;SDS011;3243;50.958;7.012;2022-12-13T14:57:31;16.87;;;10.30;;
6420;SDS011;3243;50.958;7.012;2022-12-13T15:00:01;20.83;;;10.47;;
6420;SDS011;3243;50.958;7.012;2022-12-13T15:02:49;17.03;;;9.83;;
6420;SDS011;3243;50.958;7.012;2022-12-13T15:05:25;16.70;;;10.00;;
6420;SDS011;3243;50.958;7.012;2022-12-13T15:07:54;17.60;;;9.97;;
6420;SDS011;3243;50.958;7.012;2022-12-13T15:12:50;15.70;;;9.83;;
6420;SDS011;3243;50.958;7.012;2022-12-13T15:15:28;20.93;;;10.40;;
6420;SDS011;3243;50.958;7.012;2022-12-13T15:20:47;16.23;;;10.00;;
6420;SDS011;3243;50.958;7.012;2022-12-13T15:23:23;16.77;;;9.97;;
6420;SDS011;3243;50.958;7.012;2022-12-13T15:25:58;19.57;;;10.13;;
6420;SDS011;3243;50.958;7.012;2022-12-13T15:28:26;15.93;;;9.97;;
6420;SDS011;3243;50.958;7.012;2022-12-13T15:30:58;19.47;;;10.27;;
6420;SDS011;3243;50.958;7.012;2022-12-13T15:33:26;20.03;;;10.13;;
6420;SDS011;3243;50.958;7.012;2022-12-13T15:38:39;16.23;;;10.23;;
6420;SDS011;3243;50.958;7.012;2022-12-13T15:41:17;19.27;;;10.47;;
6420;SDS011;3243;50.958;7.012;2022-12-13T15:43:46;19.20;;;10.63;;
6420;SDS011;3243;50.958;7.012;2022-12-13T15:46:27;18.83;;;10.63;;
6420;SDS011;3243;50.958;7.012;2022-12-13T15:48:58;17.57;;;9.70;;
6420;SDS011;3243;50.958;7.012;2022-12-13T15:51:27;18.43;;;10.17;;
6420;SDS011;3243;50.958;7.012;2022-12-13T15:54:06;19.17;;;10.60;;
6420;SDS011;3243;50.958;7.012;2022-12-13T15:56:57;17.03;;;10.67;;
6420;SDS011;3243;50.958;7.012;2022-12-13T15:59:41;16.70;;;9.20;;
6420;SDS011;3243;50.958;7.012;2022-12-13T16:02:33;18.47;;;10.93;;
6420;SDS011;3243;50.958;7.012;2022-12-13T16:05:40;22.13;;;10.73;;
6420;SDS011;3243;50.958;7.012;2022-12-13T16:08:00;20.97;;;11.40;;
6420;SDS011;3243;50.958;7.012;2022-12-13T16:10:44;20.43;;;10.40;;
6420;SDS011;3243;50.958;7.012;2022-12-13T16:13:15;18.33;;;10.53;;
6420;SDS011;3243;50.958;7.012;2022-12-13T16:15:55;18.97;;;10.63;;
6420;SDS011;3243;50.958;7.012;2022-12-13T16:18:41;19.17;;;10.57;;
6420;SDS011;3243;50.958;7.012;2022-12-13T16:21:16;17.13;;;10.70;;
6420;SDS011;3243;50.958;7.012;2022-12-13T16:23:43;17.97;;;9.97;;
6420;SDS011;3243;50.958;7.012;2022-12-13T16:26:14;16.73;;;9.90;;
6420;SDS011;3243;50.958;7.012;2022-12-13T16:28:47;15.90;;;9.93;;
6420;SDS011;3243;50.958;7.012;2022-12-13T16:31:23;16.77;;;9.30;;
6420;SDS011;3243;50.958;7.012;2022-12-13T16:33:51;13.17;;;9.07;;
6420;SDS011;3243;50.958;7.012;2022-12-13T16:36:18;20.00;;;9.47;;
6420;SDS011;3243;50.958;7.012;2022-12-13T16:38:45;15.43;;;9.40;;
6420;SDS011;3243;50.958;7.012;2022-12-13T16:41:12;15.07;;;8.63;;
6420;SDS011;3243;50.958;7.012;2022-12-13T16:43:45;15.50;;;9.20;;
6420;SDS011;3243;50.958;7.012;2022-12-13T16:46:18;17.07;;;9.60;;
6420;SDS011;3243;50.958;7.012;2022-12-13T16:49:09;13.97;;;8.53;;
6420;SDS011;3243;50.958;7.012;2022-12-13T16:51:46;18.70;;;9.30;;
6420;SDS011;3243;50.958;7.012;2022-12-13T16:54:14;16.90;;;9.47;;
6420;SDS011;3243;50.958;7.012;2022-12-13T16:56:42;16.73;;;9.77;;
6420;SDS011;3243;50.958;7.012;2022-12-13T16:59:16;17.97;;;9.40;;
6420;SDS011;3243;50.958;7.012;2022-12-13T17:01:45;19.47;;;10.70;;
6420;SDS011;3243;50.958;7.012;2022-12-13T17:04:13;18.83;;;11.07;;
6420;SDS011;3243;50.958;7.012;2022-12-13T17:06:46;26.73;;;12.67;;
6420;SDS011;3243;50.958;7.012;2022-12-13T17:09:21;22.93;;;12.03;;
6420;SDS011;3243;50.958;7.012;2022-12-13T17:11:48;37.97;;;21.87;;
6420;SDS011;3243;50.958;7.012;2022-12-13T17:14:15;38.93;;;20.03;;
6420;SDS011;3243;50.958;7.012;2022-12-13T17:16:42;26.20;;;14.57;;
6420;SDS011;3243;50.958;7.012;2022-12-13T17:19:10;21.67;;;10.33;;
6420;SDS011;3243;50.958;7.012;2022-12-13T17:21:37;17.40;;;9.57;;
6420;SDS011;3243;50.958;7.012;2022-12-13T17:24:04;19.10;;;10.03;;
6420;SDS011;3243;50.958;7.012;2022-12-13T17:26:33;17.30;;;9.73;;
6420;SDS011;3243;50.958;7.012;2022-12-13T17:29:00;17.07;;;9.43;;
6420;SDS011;3243;50.958;7.012;2022-12-13T17:31:27;14.20;;;9.23;;
6420;SDS011;3243;50.958;7.012;2022-12-13T17:34:01;16.60;;;9.93;;
6420;SDS011;3243;50.958;7.012;2022-12-13T17:36:28;16.07;;;9.77;;
6420;SDS011;3243;50.958;7.012;2022-12-13T17:38:56;14.67;;;9.30;;
6420;SDS011;3243;50.958;7.012;2022-12-13T17:41:24;18.20;;;9.73;;
6420;SDS011;3243;50.958;7.012;2022-12-13T17:43:51;20.70;;;12.33;;
6420;SDS011;3243;50.958;7.012;2022-12-13T17:46:18;18.50;;;11.37;;
6420;SDS011;3243;50.958;7.012;2022-12-13T17:48:45;19.90;;;12.33;;
6420;SDS011;3243;50.958;7.012;2022-12-13T17:51:13;18.17;;;10.67;;
6420;SDS011;3243;50.958;7.012;2022-12-13T17:53:41;20.33;;;11.93;;